KNUI

Webster Nolf Airport

St Inigoes, Maryland, USA
METAR KNUI 170253Z AUTO 18004KT 10SM FEW070 16/08 A3010 RMK AO2 SLP193 T01560083 58008
Observed Flight Rules
Oct-17 @ 02:53 UTC (16 minutes ago) Visual Flight Rules
Wind Visibility Clouds
180° at 4 knots 10 miles
  • Few at 7,000' AGL
Temperatures Readings
Current 16°C / 61°F
Dewpoint 8°C / 46°F
Humidity 59%
Altimeter 30.1" Hg
Pressure 1019.3 hPa
Elevation 7
METAR KNUI 170253Z AUTO 18004KT 10SM FEW070 16/08 A3010 RMK AO2 SLP193 T01560083 58008
Observed Flight Rules
Oct-17 @ 02:53 UTC
(16 minutes ago)
VFR
Wind Visibility
180° at 4 knots 10 miles
Clouds
  • Few at 7,000' AGL
Temperature Dewpoint
16°C / 61°F 8°C / 46°F
Humidity Altimeter Pressure
59% 30.1" Hg 1019.3 hPa